createdAt,value
2017-10-10T00:02:08.211Z,5.60
2017-10-10T00:04:35.715Z,4.90
2017-10-10T00:07:03.221Z,4.57
2017-10-10T00:09:30.735Z,5.10
2017-10-10T00:11:58.239Z,5.00
2017-10-10T00:14:25.756Z,5.13
2017-10-10T00:16:53.302Z,5.83
2017-10-10T00:19:21.440Z,4.70
2017-10-10T00:21:48.945Z,4.90
2017-10-10T00:24:16.491Z,4.33
2017-10-10T00:26:44.058Z,4.10
2017-10-10T00:29:11.616Z,4.73
2017-10-10T00:31:39.114Z,4.30
2017-10-10T00:34:06.637Z,4.50
2017-10-10T00:36:34.145Z,4.90
2017-10-10T00:39:01.743Z,4.20
2017-10-10T00:41:29.247Z,3.63
2017-10-10T00:43:56.775Z,4.03
2017-10-10T00:46:24.286Z,4.10
2017-10-10T00:48:51.811Z,4.37
2017-10-10T00:51:19.319Z,4.63
2017-10-10T00:53:47.607Z,4.10
2017-10-10T00:56:15.107Z,4.17
2017-10-10T00:58:42.627Z,3.80
2017-10-10T01:01:10.143Z,3.70
2017-10-10T01:03:37.659Z,3.77
2017-10-10T01:06:05.164Z,4.80
2017-10-10T01:08:32.692Z,4.60
2017-10-10T01:11:00.199Z,3.87
2017-10-10T01:13:28.483Z,4.50
2017-10-10T01:15:56.916Z,4.20
2017-10-10T01:18:24.444Z,4.90
2017-10-10T01:20:51.944Z,4.33
2017-10-10T01:23:19.475Z,4.90
2017-10-10T01:25:46.975Z,4.30
2017-10-10T01:28:15.256Z,4.67
2017-10-10T01:30:43.549Z,4.20
2017-10-10T01:33:11.324Z,4.43
2017-10-10T01:35:38.843Z,4.17
2017-10-10T01:38:06.351Z,4.43
2017-10-10T01:40:33.876Z,4.50
2017-10-10T01:43:02.150Z,3.97
2017-10-10T01:45:30.438Z,3.80
2017-10-10T01:47:57.935Z,5.40
2017-10-10T01:50:25.484Z,4.93
2017-10-10T01:52:53.024Z,4.20
2017-10-10T01:55:20.556Z,5.10
2017-10-10T01:57:48.852Z,5.07
2017-10-10T02:00:16.415Z,4.20
2017-10-10T02:02:43.919Z,4.80
2017-10-10T02:05:11.440Z,4.40
2017-10-10T02:07:38.992Z,4.70
2017-10-10T02:10:06.552Z,4.90
2017-10-10T02:12:34.107Z,4.67
2017-10-10T02:15:02.263Z,4.10
2017-10-10T02:17:30.540Z,4.83
2017-10-10T02:19:58.811Z,4.40
2017-10-10T02:22:27.094Z,4.57
2017-10-10T02:24:55.365Z,4.40
2017-10-10T02:27:23.762Z,4.13
2017-10-10T02:29:52.234Z,5.13
2017-10-10T02:32:19.767Z,4.90
2017-10-10T02:34:47.360Z,4.40
2017-10-10T02:37:14.876Z,4.27
2017-10-10T02:39:42.387Z,4.60
2017-10-10T02:42:09.907Z,4.37
2017-10-10T02:44:38.211Z,4.13
2017-10-10T02:47:05.732Z,4.57
2017-10-10T02:49:33.239Z,4.30
2017-10-10T02:52:00.759Z,4.10
2017-10-10T02:54:29.031Z,4.20
2017-10-10T02:56:56.624Z,4.37
2017-10-10T02:59:24.131Z,5.50
2017-10-10T03:01:51.660Z,4.40
2017-10-10T03:04:19.164Z,4.70
2017-10-10T03:06:46.772Z,4.03
2017-10-10T03:09:14.487Z,4.27
2017-10-10T03:11:41.990Z,4.50
2017-10-10T03:14:09.534Z,4.80
2017-10-10T03:16:37.087Z,4.90
2017-10-10T03:19:04.651Z,4.73
2017-10-10T03:21:32.147Z,4.17
2017-10-10T03:23:59.763Z,5.10
2017-10-10T03:26:27.322Z,5.30
2017-10-10T03:28:54.887Z,4.57
2017-10-10T03:31:22.391Z,4.87
2017-10-10T03:33:49.922Z,4.60
2017-10-10T03:36:17.421Z,4.90
2017-10-10T03:38:44.947Z,4.57
2017-10-10T03:41:12.451Z,4.70
2017-10-10T03:43:40.751Z,5.03
2017-10-10T03:46:09.132Z,5.17
2017-10-10T03:48:37.248Z,4.90
2017-10-10T03:51:04.756Z,4.80
2017-10-10T03:53:32.320Z,6.30
2017-10-10T03:56:00.273Z,5.30
2017-10-10T03:58:28.683Z,5.60
2017-10-10T04:00:56.187Z,4.77
2017-10-10T04:03:23.727Z,4.70
2017-10-10T04:05:51.243Z,4.80
2017-10-10T04:08:18.747Z,4.93
2017-10-10T04:10:46.267Z,4.43
2017-10-10T04:13:13.815Z,5.37
2017-10-10T04:15:41.336Z,5.70
2017-10-10T04:18:08.844Z,5.30
2017-10-10T04:20:36.365Z,6.10
2017-10-10T04:23:04.635Z,6.00
2017-10-10T04:25:32.923Z,7.07
2017-10-10T04:28:01.191Z,5.73
2017-10-10T04:30:29.475Z,6.17
2017-10-10T04:32:57.747Z,6.80
2017-10-10T04:35:26.261Z,7.70
2017-10-10T04:37:53.768Z,5.27
2017-10-10T04:40:22.795Z,5.83
2017-10-10T04:42:50.498Z,8.30
2017-10-10T04:45:18.022Z,9.37
2017-10-10T04:47:45.527Z,8.77
2017-10-10T04:50:13.052Z,7.77
2017-10-10T04:52:40.556Z,7.27
2017-10-10T04:55:08.075Z,7.40
2017-10-10T04:57:35.594Z,11.17
2017-10-10T05:00:03.883Z,9.80
2017-10-10T05:02:31.446Z,8.33
2017-10-10T05:04:59.719Z,6.87
2017-10-10T05:07:27.499Z,6.53
2017-10-10T05:09:55.384Z,6.10
2017-10-10T05:12:22.904Z,5.80
2017-10-10T05:14:50.404Z,6.47
2017-10-10T05:17:17.928Z,5.93
2017-10-10T05:19:45.435Z,6.00
2017-10-10T05:22:12.955Z,5.70
2017-10-10T05:24:40.451Z,5.30
2017-10-10T05:27:08.065Z,5.43
2017-10-10T05:29:35.572Z,4.70
2017-10-10T05:32:03.808Z,4.50
2017-10-10T05:34:31.319Z,4.67
2017-10-10T05:36:59.626Z,5.67
2017-10-10T05:39:27.131Z,4.77
2017-10-10T05:41:54.651Z,5.00
2017-10-10T05:44:22.164Z,4.57
2017-10-10T05:46:50.375Z,4.80
2017-10-10T05:49:17.911Z,5.17
2017-10-10T05:51:46.214Z,4.80
2017-10-10T05:54:14.208Z,5.00
2017-10-10T05:56:41.729Z,4.63
2017-10-10T05:59:09.295Z,4.80
2017-10-10T06:01:36.811Z,4.70
2017-10-10T06:04:04.315Z,4.60
2017-10-10T06:06:31.859Z,5.10
2017-10-10T06:09:00.143Z,4.50
2017-10-10T06:11:27.660Z,4.30
2017-10-10T06:13:55.159Z,4.07
2017-10-10T06:16:22.683Z,4.77
2017-10-10T06:18:50.195Z,3.80
2017-10-10T06:21:17.696Z,4.10
2017-10-10T06:23:45.224Z,4.50
2017-10-10T06:26:12.772Z,4.37
2017-10-10T06:28:40.297Z,5.00
2017-10-10T06:31:07.799Z,3.97
2017-10-10T06:33:35.325Z,4.63
2017-10-10T06:36:02.836Z,4.63
2017-10-10T06:38:30.352Z,4.67
2017-10-10T06:40:57.899Z,4.10
2017-10-10T06:43:25.454Z,4.40
2017-10-10T06:45:52.959Z,4.67
2017-10-10T06:48:20.481Z,4.30
2017-10-10T06:50:47.988Z,4.27
2017-10-10T06:53:15.512Z,4.60
2017-10-10T06:55:43.011Z,4.40
2017-10-10T06:58:10.706Z,4.50
2017-10-10T07:00:38.208Z,4.77
2017-10-10T07:03:06.097Z,4.70
2017-10-10T07:05:33.601Z,5.57
2017-10-10T07:08:01.147Z,4.20
2017-10-10T07:10:28.669Z,4.40
2017-10-10T07:12:56.173Z,4.30
2017-10-10T07:15:23.691Z,4.87
2017-10-10T07:17:51.204Z,4.60
2017-10-10T07:20:18.749Z,4.80
2017-10-10T07:22:46.252Z,4.60
2017-10-10T07:25:13.776Z,4.80
2017-10-10T07:27:41.284Z,5.50
2017-10-10T07:30:08.798Z,4.57
2017-10-10T07:32:36.336Z,4.63
2017-10-10T07:35:03.859Z,4.80
2017-10-10T07:37:32.136Z,4.27
2017-10-10T07:40:00.422Z,5.03
2017-10-10T07:42:28.691Z,4.70
2017-10-10T07:44:56.995Z,4.30
2017-10-10T07:47:24.499Z,4.63
2017-10-10T07:49:52.020Z,4.17
2017-10-10T07:52:19.524Z,4.47
2017-10-10T07:54:47.044Z,4.37
2017-10-10T07:57:14.547Z,4.00
2017-10-10T07:59:42.068Z,3.87
2017-10-10T08:02:09.570Z,3.90
2017-10-10T08:04:37.866Z,3.67
2017-10-10T08:07:05.368Z,4.10
2017-10-10T08:09:32.887Z,3.87
2017-10-10T08:12:00.387Z,3.70
2017-10-10T08:14:27.927Z,4.10
2017-10-10T08:16:55.431Z,4.40
2017-10-10T08:19:23.023Z,4.20
2017-10-10T08:21:50.546Z,4.37
2017-10-10T08:24:18.819Z,3.37
2017-10-10T08:26:46.339Z,4.67
2017-10-10T08:29:13.844Z,4.27
2017-10-10T08:31:42.132Z,3.67
2017-10-10T08:34:10.400Z,4.70
2017-10-10T08:36:38.682Z,3.33
2017-10-10T08:39:06.951Z,4.03
2017-10-10T08:41:35.235Z,3.40
2017-10-10T08:44:03.507Z,3.57
2017-10-10T08:46:31.792Z,4.60
2017-10-10T08:49:00.163Z,4.47
2017-10-10T08:51:28.459Z,3.97
2017-10-10T08:53:55.968Z,5.13
2017-10-10T08:56:24.395Z,3.87
2017-10-10T08:58:51.904Z,3.83
2017-10-10T09:01:19.423Z,3.93
2017-10-10T09:03:46.927Z,4.00
2017-10-10T09:06:14.443Z,4.70
2017-10-10T09:08:41.939Z,3.90
2017-10-10T09:11:09.444Z,4.07
2017-10-10T09:13:37.004Z,3.90
2017-10-10T09:16:04.507Z,3.60
2017-10-10T09:18:32.034Z,3.80
2017-10-10T09:20:59.531Z,3.83
2017-10-10T09:23:27.814Z,5.57
2017-10-10T09:25:55.320Z,4.97
2017-10-10T09:28:22.847Z,5.00
2017-10-10T09:30:51.120Z,4.53
2017-10-10T09:33:19.402Z,5.20
2017-10-10T09:35:47.671Z,4.40
2017-10-10T09:38:15.954Z,3.80
2017-10-10T09:40:44.219Z,4.90
2017-10-10T09:43:12.499Z,3.80
2017-10-10T09:45:40.768Z,3.70
2017-10-10T09:48:09.054Z,4.00
2017-10-10T09:50:37.322Z,3.87
2017-10-10T09:53:05.628Z,4.20
2017-10-10T09:55:33.127Z,3.40
2017-10-10T09:58:00.627Z,4.20
2017-10-10T10:00:28.911Z,3.70
2017-10-10T10:02:56.418Z,3.83
2017-10-10T10:05:23.935Z,3.90
2017-10-10T10:07:51.436Z,3.43
2017-10-10T10:10:18.956Z,3.10
2017-10-10T10:12:46.459Z,3.70
2017-10-10T10:15:13.979Z,3.17
2017-10-10T10:17:41.518Z,3.67
2017-10-10T10:20:09.078Z,5.43
2017-10-10T10:22:36.639Z,3.70
2017-10-10T10:25:04.191Z,3.67
2017-10-10T10:27:31.698Z,3.40
2017-10-10T10:29:59.315Z,3.17
2017-10-10T10:32:26.831Z,3.10
2017-10-10T10:34:54.352Z,3.83
2017-10-10T10:37:21.859Z,3.20
2017-10-10T10:39:50.162Z,3.20
2017-10-10T10:42:17.662Z,2.93
2017-10-10T10:44:45.287Z,2.67
2017-10-10T10:47:12.787Z,2.77
2017-10-10T10:49:40.307Z,2.53
2017-10-10T10:52:07.812Z,2.03
2017-10-10T10:54:35.327Z,2.20
2017-10-10T10:57:02.835Z,3.07
2017-10-10T10:59:30.358Z,2.30
2017-10-10T11:01:57.879Z,2.43
2017-10-10T11:04:26.148Z,2.13
2017-10-10T11:06:54.429Z,1.60
2017-10-10T11:09:22.699Z,2.00
2017-10-10T11:11:50.983Z,2.10
2017-10-10T11:14:19.252Z,2.07
2017-10-10T11:16:47.547Z,2.10
2017-10-10T11:19:15.052Z,1.70
2017-10-10T11:21:42.571Z,2.10
2017-10-10T11:24:10.079Z,1.80
2017-10-10T11:26:37.607Z,1.70
2017-10-10T11:29:05.116Z,1.93
2017-10-10T11:31:32.693Z,1.80
2017-10-10T11:34:00.201Z,1.50
2017-10-10T11:36:27.716Z,1.90
2017-10-10T11:38:55.220Z,1.90
2017-10-10T11:41:22.739Z,1.90
2017-10-10T11:43:50.243Z,2.40
2017-10-10T11:46:17.848Z,2.03
2017-10-10T11:48:45.355Z,2.37
2017-10-10T11:51:12.875Z,2.00
2017-10-10T11:53:40.375Z,2.10
2017-10-10T11:56:07.896Z,1.97
2017-10-10T11:58:35.408Z,1.77
2017-10-10T12:01:03.692Z,2.10
2017-10-10T12:03:31.983Z,2.07
2017-10-10T12:05:59.508Z,1.93
2017-10-10T12:08:27.015Z,2.27
2017-10-10T12:10:54.542Z,1.97
2017-10-10T12:13:22.806Z,1.93
2017-10-10T12:15:51.083Z,2.40
2017-10-10T12:18:19.371Z,2.20
2017-10-10T12:20:47.638Z,2.47
2017-10-10T12:23:15.933Z,2.27
2017-10-10T12:25:43.435Z,2.30
2017-10-10T12:28:10.960Z,2.70
2017-10-10T12:30:38.464Z,2.30
2017-10-10T12:33:05.984Z,2.53
2017-10-10T12:35:33.537Z,2.27
2017-10-10T12:38:01.062Z,3.40
2017-10-10T12:40:29.332Z,3.13
2017-10-10T12:42:57.624Z,2.50
2017-10-10T12:45:25.891Z,3.20
2017-10-10T12:47:54.183Z,2.27
2017-10-10T12:50:21.689Z,2.90
2017-10-10T12:52:49.718Z,2.77
2017-10-10T12:55:17.224Z,2.67
2017-10-10T12:57:44.749Z,3.10
2017-10-10T13:00:12.263Z,3.20
2017-10-10T13:02:40.552Z,3.10
2017-10-10T13:05:08.826Z,3.27
2017-10-10T13:07:36.409Z,3.30
2017-10-10T13:10:03.911Z,3.20
2017-10-10T13:12:31.858Z,2.67
2017-10-10T13:14:59.363Z,3.10
2017-10-10T13:17:27.664Z,3.17
2017-10-10T13:19:55.167Z,2.53
2017-10-10T13:22:22.783Z,2.57
2017-10-10T13:24:50.306Z,2.80
2017-10-10T13:27:18.579Z,2.63
2017-10-10T13:29:46.098Z,3.70
2017-10-10T13:32:13.599Z,3.00
2017-10-10T13:34:41.119Z,3.10
2017-10-10T13:37:08.623Z,2.60
2017-10-10T13:39:37.011Z,2.90
2017-10-10T13:42:05.279Z,2.50
2017-10-10T13:44:33.572Z,2.73
2017-10-10T13:47:01.712Z,2.50
2017-10-10T13:49:29.235Z,3.20
2017-10-10T13:51:56.735Z,2.50
2017-10-10T13:54:25.039Z,2.53
2017-10-10T13:56:52.539Z,2.73
2017-10-10T13:59:20.059Z,2.60
2017-10-10T14:01:47.566Z,2.30
2017-10-10T14:04:15.084Z,2.87
2017-10-10T14:06:42.595Z,2.23
2017-10-10T14:09:10.960Z,2.53
2017-10-10T14:11:38.483Z,2.50
2017-10-10T14:14:06.024Z,2.40
2017-10-10T14:16:33.528Z,2.60
2017-10-10T14:19:01.052Z,1.90
2017-10-10T14:21:28.558Z,1.50
2017-10-10T14:23:56.156Z,1.80
2017-10-10T14:26:23.710Z,1.37
2017-10-10T14:28:51.232Z,1.90
2017-10-10T14:31:19.551Z,1.73
2017-10-10T14:33:47.107Z,2.30
2017-10-10T14:36:14.610Z,2.10
2017-10-10T14:38:42.131Z,2.47
2017-10-10T14:41:09.635Z,2.33
2017-10-10T14:43:37.151Z,2.23
2017-10-10T14:46:04.708Z,2.20
2017-10-10T14:48:32.227Z,2.47
2017-10-10T14:50:59.724Z,2.30
2017-10-10T14:53:27.224Z,2.00
2017-10-10T14:55:54.744Z,2.30
2017-10-10T14:58:22.243Z,2.33
2017-10-10T15:00:49.763Z,2.03
2017-10-10T15:03:17.269Z,2.23
2017-10-10T15:05:45.551Z,2.20
2017-10-10T15:08:13.239Z,1.80
2017-10-10T15:10:40.755Z,1.77
2017-10-10T15:13:08.254Z,2.40
2017-10-10T15:15:35.771Z,1.70
2017-10-10T15:18:04.788Z,2.23
2017-10-10T15:20:33.079Z,2.23
2017-10-10T15:23:00.578Z,2.10
2017-10-10T15:25:28.132Z,1.90
2017-10-10T15:27:55.631Z,2.00
2017-10-10T15:30:23.919Z,1.70
2017-10-10T15:32:52.188Z,1.60
2017-10-10T15:35:20.486Z,1.80
2017-10-10T15:37:47.991Z,1.77
2017-10-10T15:40:15.515Z,1.70
2017-10-10T15:42:43.060Z,1.73
2017-10-10T15:45:10.576Z,1.80
2017-10-10T15:47:38.074Z,2.40
2017-10-10T15:50:05.596Z,1.90
2017-10-10T15:52:33.203Z,1.67
2017-10-10T15:55:00.751Z,1.20
2017-10-10T15:57:28.255Z,1.83
2017-10-10T15:59:55.770Z,1.77
2017-10-10T16:02:23.288Z,3.27
2017-10-10T16:04:50.791Z,3.80
2017-10-10T16:07:18.347Z,2.33
2017-10-10T16:09:45.847Z,1.73
2017-10-10T16:12:13.360Z,2.10
2017-10-10T16:14:40.863Z,2.10
2017-10-10T16:17:08.379Z,2.67
2017-10-10T16:19:35.888Z,2.20
2017-10-10T16:22:03.408Z,2.50
2017-10-10T16:24:30.915Z,5.80
2017-10-10T16:26:58.508Z,6.57
2017-10-10T16:29:26.015Z,4.30
2017-10-10T16:31:53.539Z,5.03
2017-10-10T16:34:21.038Z,4.00
2017-10-10T16:36:48.559Z,3.07
2017-10-10T16:39:16.055Z,4.17
2017-10-10T16:41:43.576Z,3.50
2017-10-10T16:44:11.080Z,3.60
2017-10-10T16:46:39.396Z,2.37
2017-10-10T16:49:06.903Z,2.77
2017-10-10T16:51:34.407Z,2.17
2017-10-10T16:54:01.972Z,3.30
2017-10-10T16:56:29.467Z,2.50
2017-10-10T16:58:57.350Z,2.53
2017-10-10T17:01:24.859Z,2.57
2017-10-10T17:03:52.407Z,2.83
2017-10-10T17:06:19.968Z,3.20
2017-10-10T17:08:47.491Z,3.03
2017-10-10T17:11:14.991Z,3.20
2017-10-10T17:13:42.539Z,2.97
2017-10-10T17:16:10.101Z,3.10
2017-10-10T17:18:37.655Z,4.00
2017-10-10T17:21:05.158Z,3.90
2017-10-10T17:23:32.680Z,4.53
2017-10-10T17:26:00.183Z,5.00
2017-10-10T17:28:27.801Z,5.20
2017-10-10T17:30:55.299Z,5.67
2017-10-10T17:33:22.844Z,4.90
2017-10-10T17:35:50.347Z,3.40
2017-10-10T17:38:18.618Z,3.63
2017-10-10T17:40:47.023Z,3.57
2017-10-10T17:43:14.524Z,3.13
2017-10-10T17:45:42.039Z,2.40
2017-10-10T17:48:09.606Z,2.30
2017-10-10T17:50:37.126Z,3.43
2017-10-10T17:53:06.080Z,3.27
2017-10-10T17:55:33.931Z,2.60
2017-10-10T17:58:01.584Z,2.40
2017-10-10T18:00:29.437Z,2.50
2017-10-10T18:02:56.965Z,18.50
2017-10-10T18:05:25.375Z,19.67
2017-10-10T18:07:52.941Z,4.77
2017-10-10T18:10:20.537Z,3.00
2017-10-10T18:12:48.137Z,2.80
2017-10-10T18:15:15.705Z,3.00
2017-10-10T18:17:43.619Z,2.90
2017-10-10T18:20:11.183Z,3.40
2017-10-10T18:22:38.757Z,2.20
2017-10-10T18:25:06.512Z,3.00
2017-10-10T18:27:34.271Z,3.03
2017-10-10T18:30:01.925Z,2.93
2017-10-10T18:32:29.445Z,2.43
2017-10-10T18:34:58.013Z,2.83
2017-10-10T18:37:26.333Z,3.30
2017-10-10T18:39:55.024Z,3.27
2017-10-10T18:42:22.536Z,3.37
2017-10-10T18:44:51.115Z,3.40
2017-10-10T18:47:19.496Z,4.70
2017-10-10T18:49:47.887Z,5.27
2017-10-10T18:52:15.404Z,4.77
2017-10-10T18:54:43.004Z,4.30
2017-10-10T18:57:10.653Z,4.67
2017-10-10T18:59:39.028Z,4.13
2017-10-10T19:02:07.580Z,3.80
2017-10-10T19:04:36.789Z,4.00
2017-10-10T19:07:04.328Z,4.07
2017-10-10T19:09:33.228Z,4.30
2017-10-10T19:12:00.776Z,4.13
2017-10-10T19:14:28.768Z,4.43
2017-10-10T19:16:57.319Z,4.20
2017-10-10T19:19:25.016Z,3.57
2017-10-10T19:21:53.508Z,3.30
2017-10-10T19:24:21.969Z,3.60
2017-10-10T19:26:49.547Z,3.30
2017-10-10T19:29:17.841Z,3.40
2017-10-10T19:31:45.728Z,3.37
2017-10-10T19:34:13.499Z,6.43
2017-10-10T19:36:41.492Z,5.30
2017-10-10T19:39:09.442Z,4.90
2017-10-10T19:41:37.184Z,4.87
2017-10-10T19:44:05.078Z,4.50
2017-10-10T19:46:33.031Z,4.57
2017-10-10T19:49:00.733Z,5.90
2017-10-10T19:51:28.373Z,7.80
2017-10-10T19:53:56.020Z,5.63
2017-10-10T19:56:23.668Z,5.13
2017-10-10T19:58:51.523Z,4.97
2017-10-10T20:01:19.162Z,4.00
2017-10-10T20:03:47.512Z,4.70
2017-10-10T20:06:15.124Z,3.77
2017-10-10T20:08:42.917Z,4.63
2017-10-10T20:11:10.563Z,5.63
2017-10-10T20:13:38.083Z,4.73
2017-10-10T20:16:06.403Z,5.93
2017-10-10T20:18:33.924Z,4.60
2017-10-10T20:21:02.191Z,5.70
2017-10-10T20:23:30.474Z,5.53
2017-10-10T20:25:58.739Z,6.30
2017-10-10T20:28:27.028Z,5.83
2017-10-10T20:30:55.298Z,5.77
2017-10-10T20:33:23.579Z,6.80
2017-10-10T20:35:51.084Z,5.70
2017-10-10T20:38:18.658Z,6.93
2017-10-10T20:40:46.278Z,6.43
2017-10-10T20:43:13.810Z,7.30
2017-10-10T20:45:42.232Z,6.20
2017-10-10T20:48:09.735Z,5.83
2017-10-10T20:50:38.023Z,4.87
2017-10-10T20:53:06.287Z,4.13
2017-10-10T20:55:34.601Z,4.83
2017-10-10T20:58:02.103Z,5.10
2017-10-10T21:00:29.622Z,5.90
2017-10-10T21:02:57.119Z,5.20
2017-10-10T21:05:24.635Z,4.40
2017-10-10T21:07:52.136Z,4.17
2017-10-10T21:10:19.739Z,4.20
2017-10-10T21:12:47.247Z,4.43
2017-10-10T21:15:14.834Z,4.10
2017-10-10T21:17:43.149Z,4.20
2017-10-10T21:20:10.828Z,2.87
2017-10-10T21:22:38.353Z,3.40
2017-10-10T21:25:06.036Z,2.63
2017-10-10T21:27:33.923Z,3.50
2017-10-10T21:30:01.651Z,2.93
2017-10-10T21:32:29.320Z,3.00
2017-10-10T21:34:57.114Z,3.40
2017-10-10T21:37:24.745Z,3.47
2017-10-10T21:39:52.289Z,2.80
2017-10-10T21:42:20.025Z,3.30
2017-10-10T21:44:48.447Z,6.67
2017-10-10T21:47:16.621Z,3.23
2017-10-10T21:49:44.519Z,3.43
2017-10-10T21:52:12.276Z,3.80
2017-10-10T21:54:39.958Z,3.80
2017-10-10T21:57:08.495Z,3.10
2017-10-10T21:59:36.006Z,3.63
2017-10-10T22:02:03.715Z,3.13
2017-10-10T22:04:31.254Z,3.70
2017-10-10T22:06:59.303Z,3.57
2017-10-10T22:09:27.591Z,4.37
2017-10-10T22:11:55.903Z,3.77
2017-10-10T22:14:23.551Z,3.90
2017-10-10T22:16:51.117Z,3.80
2017-10-10T22:19:18.659Z,3.90
2017-10-10T22:21:46.182Z,3.90
2017-10-10T22:24:13.696Z,3.90
2017-10-10T22:26:41.235Z,4.80
2017-10-10T22:29:08.735Z,4.30
2017-10-10T22:31:36.254Z,4.13
2017-10-10T22:34:03.767Z,3.63
2017-10-10T22:36:31.266Z,3.80
2017-10-10T22:38:58.795Z,4.17
2017-10-10T22:41:26.297Z,3.50
2017-10-10T22:43:53.815Z,3.87
2017-10-10T22:46:22.117Z,3.60
2017-10-10T22:48:49.631Z,3.10
2017-10-10T22:51:17.131Z,3.23
2017-10-10T22:53:44.691Z,2.90
2017-10-10T22:56:12.200Z,3.00
2017-10-10T22:58:41.229Z,2.90
2017-10-10T23:01:09.495Z,3.13
2017-10-10T23:03:37.783Z,3.00
2017-10-10T23:06:06.061Z,3.70
2017-10-10T23:08:33.595Z,3.50
2017-10-10T23:11:01.192Z,2.73
2017-10-10T23:13:28.715Z,3.10
2017-10-10T23:15:56.991Z,3.27
2017-10-10T23:18:24.580Z,3.47
2017-10-10T23:20:52.087Z,3.33
2017-10-10T23:23:19.609Z,3.50
2017-10-10T23:25:47.115Z,3.50
2017-10-10T23:28:14.631Z,3.83
2017-10-10T23:30:42.135Z,3.70
2017-10-10T23:33:09.656Z,3.57
2017-10-10T23:35:37.160Z,3.70
2017-10-10T23:38:05.459Z,3.00
2017-10-10T23:40:33.691Z,3.23
2017-10-10T23:43:01.196Z,3.00
2017-10-10T23:45:28.719Z,3.40
2017-10-10T23:47:56.220Z,3.07
2017-10-10T23:50:23.767Z,3.00
2017-10-10T23:52:51.271Z,4.37
2017-10-10T23:55:18.792Z,3.33
2017-10-10T23:57:46.353Z,2.80
